sensor_id;sensor_type;location;lat;lon;timestamp;P1;durP1;ratioP1;P2;durP2;ratioP2
55148;SDS011;49539;48.160;11.530;2024-01-11T00:01:12;55.83;;;25.08;;
55148;SDS011;49539;48.160;11.530;2024-01-11T00:03:47;60.15;;;25.77;;
55148;SDS011;49539;48.160;11.530;2024-01-11T00:06:22;50.08;;;22.65;;
55148;SDS011;49539;48.160;11.530;2024-01-11T00:08:57;60.20;;;25.20;;
55148;SDS011;49539;48.160;11.530;2024-01-11T00:11:33;65.22;;;25.73;;
55148;SDS011;49539;48.160;11.530;2024-01-11T00:14:08;60.30;;;24.50;;
55148;SDS011;49539;48.160;11.530;2024-01-11T00:16:43;66.20;;;25.45;;
55148;SDS011;49539;48.160;11.530;2024-01-11T00:19:18;63.47;;;24.50;;
55148;SDS011;49539;48.160;11.530;2024-01-11T00:21:54;56.38;;;24.45;;
55148;SDS011;49539;48.160;11.530;2024-01-11T00:24:30;63.30;;;23.80;;
55148;SDS011;49539;48.160;11.530;2024-01-11T00:27:05;56.67;;;23.92;;
55148;SDS011;49539;48.160;11.530;2024-01-11T00:29:40;60.92;;;22.73;;
55148;SDS011;49539;48.160;11.530;2024-01-11T00:32:16;62.83;;;25.15;;
55148;SDS011;49539;48.160;11.530;2024-01-11T00:34:51;67.15;;;24.67;;
55148;SDS011;49539;48.160;11.530;2024-01-11T00:37:26;67.70;;;26.40;;
55148;SDS011;49539;48.160;11.530;2024-01-11T00:40:01;61.65;;;24.00;;
55148;SDS011;49539;48.160;11.530;2024-01-11T00:42:37;56.25;;;22.92;;
55148;SDS011;49539;48.160;11.530;2024-01-11T00:45:12;61.70;;;25.55;;
55148;SDS011;49539;48.160;11.530;2024-01-11T00:47:47;60.13;;;22.70;;
55148;SDS011;49539;48.160;11.530;2024-01-11T00:50:22;65.32;;;23.65;;
55148;SDS011;49539;48.160;11.530;2024-01-11T00:52:58;56.95;;;24.40;;
55148;SDS011;49539;48.160;11.530;2024-01-11T00:55:33;56.85;;;23.38;;
55148;SDS011;49539;48.160;11.530;2024-01-11T00:58:08;51.72;;;23.85;;
55148;SDS011;49539;48.160;11.530;2024-01-11T01:00:43;56.65;;;22.33;;
55148;SDS011;49539;48.160;11.530;2024-01-11T01:03:19;62.47;;;23.90;;
55148;SDS011;49539;48.160;11.530;2024-01-11T01:05:54;61.25;;;23.75;;
55148;SDS011;49539;48.160;11.530;2024-01-11T01:08:30;61.08;;;23.55;;
55148;SDS011;49539;48.160;11.530;2024-01-11T01:11:05;53.95;;;24.08;;
55148;SDS011;49539;48.160;11.530;2024-01-11T01:13:40;59.45;;;23.80;;
55148;SDS011;49539;48.160;11.530;2024-01-11T01:16:15;60.85;;;25.50;;
55148;SDS011;49539;48.160;11.530;2024-01-11T01:18:52;63.90;;;25.58;;
55148;SDS011;49539;48.160;11.530;2024-01-11T01:21:28;66.60;;;26.88;;
55148;SDS011;49539;48.160;11.530;2024-01-11T01:24:03;67.95;;;27.25;;
55148;SDS011;49539;48.160;11.530;2024-01-11T01:26:38;56.55;;;25.50;;
55148;SDS011;49539;48.160;11.530;2024-01-11T01:29:14;67.90;;;25.45;;
55148;SDS011;49539;48.160;11.530;2024-01-11T01:31:50;66.05;;;25.38;;
55148;SDS011;49539;48.160;11.530;2024-01-11T01:34:26;74.38;;;25.05;;
55148;SDS011;49539;48.160;11.530;2024-01-11T01:37:01;59.92;;;25.85;;
55148;SDS011;49539;48.160;11.530;2024-01-11T01:39:39;67.55;;;26.13;;
55148;SDS011;49539;48.160;11.530;2024-01-11T01:42:15;65.32;;;24.13;;
55148;SDS011;49539;48.160;11.530;2024-01-11T01:44:50;50.05;;;24.23;;
55148;SDS011;49539;48.160;11.530;2024-01-11T01:47:28;66.47;;;24.02;;
55148;SDS011;49539;48.160;11.530;2024-01-11T01:50:04;61.50;;;23.23;;
55148;SDS011;49539;48.160;11.530;2024-01-11T01:52:40;56.90;;;24.70;;
55148;SDS011;49539;48.160;11.530;2024-01-11T01:55:16;54.13;;;21.90;;
55148;SDS011;49539;48.160;11.530;2024-01-11T01:57:52;60.63;;;25.38;;
55148;SDS011;49539;48.160;11.530;2024-01-11T02:00:28;65.90;;;24.83;;
55148;SDS011;49539;48.160;11.530;2024-01-11T02:03:03;52.28;;;23.75;;
55148;SDS011;49539;48.160;11.530;2024-01-11T02:05:39;52.35;;;22.92;;
55148;SDS011;49539;48.160;11.530;2024-01-11T02:08:15;55.58;;;24.08;;
55148;SDS011;49539;48.160;11.530;2024-01-11T02:10:51;57.63;;;22.83;;
55148;SDS011;49539;48.160;11.530;2024-01-11T02:13:26;53.45;;;23.00;;
55148;SDS011;49539;48.160;11.530;2024-01-11T02:16:01;60.63;;;25.52;;
55148;SDS011;49539;48.160;11.530;2024-01-11T02:18:37;62.80;;;26.98;;
55148;SDS011;49539;48.160;11.530;2024-01-11T02:21:13;63.47;;;25.60;;
55148;SDS011;49539;48.160;11.530;2024-01-11T02:23:56;66.07;;;27.33;;
55148;SDS011;49539;48.160;11.530;2024-01-11T02:26:32;60.38;;;26.23;;
55148;SDS011;49539;48.160;11.530;2024-01-11T02:29:07;55.42;;;23.27;;
55148;SDS011;49539;48.160;11.530;2024-01-11T02:31:42;60.17;;;25.67;;
55148;SDS011;49539;48.160;11.530;2024-01-11T02:34:18;57.13;;;23.90;;
55148;SDS011;49539;48.160;11.530;2024-01-11T02:36:53;62.47;;;25.27;;
55148;SDS011;49539;48.160;11.530;2024-01-11T02:39:29;58.38;;;23.50;;
55148;SDS011;49539;48.160;11.530;2024-01-11T02:42:04;55.58;;;24.85;;
55148;SDS011;49539;48.160;11.530;2024-01-11T02:44:39;54.13;;;23.45;;
55148;SDS011;49539;48.160;11.530;2024-01-11T02:47:15;54.30;;;24.20;;
55148;SDS011;49539;48.160;11.530;2024-01-11T02:49:50;56.30;;;22.73;;
55148;SDS011;49539;48.160;11.530;2024-01-11T02:52:26;46.88;;;20.75;;
55148;SDS011;49539;48.160;11.530;2024-01-11T02:55:01;45.00;;;21.52;;
55148;SDS011;49539;48.160;11.530;2024-01-11T02:57:36;42.97;;;19.60;;
55148;SDS011;49539;48.160;11.530;2024-01-11T03:00:12;41.20;;;19.83;;
55148;SDS011;49539;48.160;11.530;2024-01-11T03:02:47;42.20;;;19.25;;
55148;SDS011;49539;48.160;11.530;2024-01-11T03:05:22;45.40;;;20.10;;
55148;SDS011;49539;48.160;11.530;2024-01-11T03:07:57;44.65;;;19.10;;
55148;SDS011;49539;48.160;11.530;2024-01-11T03:10:33;41.53;;;19.90;;
55148;SDS011;49539;48.160;11.530;2024-01-11T03:13:08;45.30;;;19.95;;
55148;SDS011;49539;48.160;11.530;2024-01-11T03:15:43;49.67;;;20.58;;
55148;SDS011;49539;48.160;11.530;2024-01-11T03:18:18;46.70;;;21.15;;
55148;SDS011;49539;48.160;11.530;2024-01-11T03:20:54;49.53;;;21.08;;
55148;SDS011;49539;48.160;11.530;2024-01-11T03:23:29;45.63;;;19.80;;
55148;SDS011;49539;48.160;11.530;2024-01-11T03:26:11;49.58;;;21.77;;
55148;SDS011;49539;48.160;11.530;2024-01-11T03:28:46;47.08;;;19.85;;
55148;SDS011;49539;48.160;11.530;2024-01-11T03:31:21;52.25;;;22.90;;
55148;SDS011;49539;48.160;11.530;2024-01-11T03:33:57;55.67;;;22.33;;
55148;SDS011;49539;48.160;11.530;2024-01-11T03:36:32;50.10;;;22.27;;
55148;SDS011;49539;48.160;11.530;2024-01-11T03:39:07;38.75;;;19.38;;
55148;SDS011;49539;48.160;11.530;2024-01-11T03:41:43;41.63;;;19.42;;
55148;SDS011;49539;48.160;11.530;2024-01-11T03:44:18;42.88;;;20.48;;
55148;SDS011;49539;48.160;11.530;2024-01-11T03:46:54;52.08;;;22.08;;
55148;SDS011;49539;48.160;11.530;2024-01-11T03:49:29;48.28;;;20.40;;
55148;SDS011;49539;48.160;11.530;2024-01-11T03:52:04;47.33;;;22.55;;
55148;SDS011;49539;48.160;11.530;2024-01-11T03:54:40;49.90;;;22.30;;
55148;SDS011;49539;48.160;11.530;2024-01-11T03:57:15;41.88;;;21.17;;
55148;SDS011;49539;48.160;11.530;2024-01-11T03:59:52;52.55;;;22.33;;
55148;SDS011;49539;48.160;11.530;2024-01-11T04:02:27;44.92;;;21.55;;
55148;SDS011;49539;48.160;11.530;2024-01-11T04:05:02;49.47;;;21.88;;
55148;SDS011;49539;48.160;11.530;2024-01-11T04:07:38;46.67;;;19.95;;
55148;SDS011;49539;48.160;11.530;2024-01-11T04:10:15;52.92;;;23.45;;
55148;SDS011;49539;48.160;11.530;2024-01-11T04:12:50;45.45;;;21.50;;
55148;SDS011;49539;48.160;11.530;2024-01-11T04:15:25;52.38;;;23.38;;
55148;SDS011;49539;48.160;11.530;2024-01-11T04:18:00;46.33;;;22.50;;
55148;SDS011;49539;48.160;11.530;2024-01-11T04:20:36;51.65;;;23.17;;
55148;SDS011;49539;48.160;11.530;2024-01-11T04:23:11;42.95;;;20.05;;
55148;SDS011;49539;48.160;11.530;2024-01-11T04:25:46;55.25;;;21.98;;
55148;SDS011;49539;48.160;11.530;2024-01-11T04:28:22;49.15;;;20.98;;
55148;SDS011;49539;48.160;11.530;2024-01-11T04:30:57;45.00;;;20.23;;
55148;SDS011;49539;48.160;11.530;2024-01-11T04:33:32;46.85;;;21.70;;
55148;SDS011;49539;48.160;11.530;2024-01-11T04:36:08;45.75;;;21.15;;
55148;SDS011;49539;48.160;11.530;2024-01-11T04:38:43;46.90;;;19.83;;
55148;SDS011;49539;48.160;11.530;2024-01-11T04:41:19;44.50;;;20.88;;
55148;SDS011;49539;48.160;11.530;2024-01-11T04:43:54;49.88;;;21.65;;
55148;SDS011;49539;48.160;11.530;2024-01-11T04:46:30;44.05;;;21.25;;
55148;SDS011;49539;48.160;11.530;2024-01-11T04:49:05;48.65;;;20.83;;
55148;SDS011;49539;48.160;11.530;2024-01-11T04:51:40;53.22;;;23.48;;
55148;SDS011;49539;48.160;11.530;2024-01-11T04:54:15;61.50;;;25.48;;
55148;SDS011;49539;48.160;11.530;2024-01-11T04:56:51;57.78;;;25.10;;
55148;SDS011;49539;48.160;11.530;2024-01-11T04:59:26;54.20;;;24.00;;
55148;SDS011;49539;48.160;11.530;2024-01-11T05:02:01;68.63;;;25.90;;
55148;SDS011;49539;48.160;11.530;2024-01-11T05:04:36;61.88;;;25.65;;
55148;SDS011;49539;48.160;11.530;2024-01-11T05:07:12;61.22;;;26.73;;
55148;SDS011;49539;48.160;11.530;2024-01-11T05:09:47;51.75;;;26.10;;
55148;SDS011;49539;48.160;11.530;2024-01-11T05:12:22;56.65;;;27.13;;
55148;SDS011;49539;48.160;11.530;2024-01-11T05:14:58;54.70;;;24.30;;
55148;SDS011;49539;48.160;11.530;2024-01-11T05:17:33;51.97;;;25.70;;
55148;SDS011;49539;48.160;11.530;2024-01-11T05:20:09;58.60;;;24.83;;
55148;SDS011;49539;48.160;11.530;2024-01-11T05:22:45;56.72;;;27.42;;
55148;SDS011;49539;48.160;11.530;2024-01-11T05:25:21;59.28;;;27.20;;
55148;SDS011;49539;48.160;11.530;2024-01-11T05:27:56;57.33;;;28.63;;
55148;SDS011;49539;48.160;11.530;2024-01-11T05:30:31;61.42;;;28.02;;
55148;SDS011;49539;48.160;11.530;2024-01-11T05:33:06;66.32;;;28.67;;
55148;SDS011;49539;48.160;11.530;2024-01-11T05:35:42;66.57;;;27.08;;
55148;SDS011;49539;48.160;11.530;2024-01-11T05:38:17;65.53;;;29.27;;
55148;SDS011;49539;48.160;11.530;2024-01-11T05:40:52;63.13;;;27.63;;
55148;SDS011;49539;48.160;11.530;2024-01-11T05:43:27;57.13;;;26.85;;
55148;SDS011;49539;48.160;11.530;2024-01-11T05:46:03;62.88;;;29.17;;
55148;SDS011;49539;48.160;11.530;2024-01-11T05:48:38;64.40;;;29.60;;
55148;SDS011;49539;48.160;11.530;2024-01-11T05:51:14;75.45;;;28.13;;
55148;SDS011;49539;48.160;11.530;2024-01-11T05:53:49;61.47;;;25.77;;
55148;SDS011;49539;48.160;11.530;2024-01-11T05:56:25;69.07;;;27.67;;
55148;SDS011;49539;48.160;11.530;2024-01-11T05:59:00;69.13;;;29.52;;
55148;SDS011;49539;48.160;11.530;2024-01-11T06:01:40;60.75;;;26.33;;
55148;SDS011;49539;48.160;11.530;2024-01-11T06:04:15;59.28;;;26.80;;
55148;SDS011;49539;48.160;11.530;2024-01-11T06:06:51;66.07;;;26.70;;
55148;SDS011;49539;48.160;11.530;2024-01-11T06:09:26;64.35;;;27.45;;
55148;SDS011;49539;48.160;11.530;2024-01-11T06:12:02;56.90;;;25.77;;
55148;SDS011;49539;48.160;11.530;2024-01-11T06:14:37;63.65;;;27.40;;
55148;SDS011;49539;48.160;11.530;2024-01-11T06:17:12;56.78;;;28.15;;
55148;SDS011;49539;48.160;11.530;2024-01-11T06:19:47;61.70;;;27.75;;
55148;SDS011;49539;48.160;11.530;2024-01-11T06:22:23;53.15;;;26.17;;
55148;SDS011;49539;48.160;11.530;2024-01-11T06:24:58;65.15;;;29.05;;
55148;SDS011;49539;48.160;11.530;2024-01-11T06:27:34;61.33;;;27.30;;
55148;SDS011;49539;48.160;11.530;2024-01-11T06:30:10;63.55;;;26.23;;
55148;SDS011;49539;48.160;11.530;2024-01-11T06:32:45;63.90;;;27.83;;
55148;SDS011;49539;48.160;11.530;2024-01-11T06:35:20;66.97;;;27.27;;
55148;SDS011;49539;48.160;11.530;2024-01-11T06:37:56;70.88;;;28.17;;
55148;SDS011;49539;48.160;11.530;2024-01-11T06:40:31;74.53;;;27.88;;
55148;SDS011;49539;48.160;11.530;2024-01-11T06:43:06;64.68;;;28.60;;
55148;SDS011;49539;48.160;11.530;2024-01-11T06:45:42;58.08;;;27.00;;
55148;SDS011;49539;48.160;11.530;2024-01-11T06:48:17;61.67;;;26.00;;
55148;SDS011;49539;48.160;11.530;2024-01-11T06:50:53;59.35;;;26.48;;
55148;SDS011;49539;48.160;11.530;2024-01-11T06:53:28;62.92;;;27.02;;
55148;SDS011;49539;48.160;11.530;2024-01-11T06:56:12;60.53;;;26.40;;
55148;SDS011;49539;48.160;11.530;2024-01-11T06:58:47;63.75;;;27.70;;
55148;SDS011;49539;48.160;11.530;2024-01-11T07:01:23;60.85;;;26.23;;
55148;SDS011;49539;48.160;11.530;2024-01-11T07:03:58;64.53;;;26.83;;
55148;SDS011;49539;48.160;11.530;2024-01-11T07:06:33;60.30;;;26.63;;
55148;SDS011;49539;48.160;11.530;2024-01-11T07:09:09;54.50;;;25.77;;
55148;SDS011;49539;48.160;11.530;2024-01-11T07:11:46;62.67;;;26.45;;
55148;SDS011;49539;48.160;11.530;2024-01-11T07:14:21;57.90;;;26.23;;
55148;SDS011;49539;48.160;11.530;2024-01-11T07:16:56;62.25;;;27.15;;
55148;SDS011;49539;48.160;11.530;2024-01-11T07:19:31;61.45;;;26.08;;
55148;SDS011;49539;48.160;11.530;2024-01-11T07:22:07;58.88;;;24.63;;
55148;SDS011;49539;48.160;11.530;2024-01-11T07:24:42;56.13;;;25.25;;
55148;SDS011;49539;48.160;11.530;2024-01-11T07:27:17;50.50;;;23.83;;
55148;SDS011;49539;48.160;11.530;2024-01-11T07:29:53;56.35;;;22.88;;
55148;SDS011;49539;48.160;11.530;2024-01-11T07:32:28;48.83;;;22.77;;
55148;SDS011;49539;48.160;11.530;2024-01-11T07:35:03;53.28;;;23.80;;
55148;SDS011;49539;48.160;11.530;2024-01-11T07:37:39;49.17;;;22.05;;
55148;SDS011;49539;48.160;11.530;2024-01-11T07:40:15;42.75;;;21.92;;
55148;SDS011;49539;48.160;11.530;2024-01-11T07:42:50;37.65;;;20.48;;
55148;SDS011;49539;48.160;11.530;2024-01-11T07:45:25;41.20;;;20.13;;
55148;SDS011;49539;48.160;11.530;2024-01-11T07:48:00;50.80;;;22.77;;
55148;SDS011;49539;48.160;11.530;2024-01-11T07:50:38;51.58;;;21.90;;
55148;SDS011;49539;48.160;11.530;2024-01-11T07:53:13;51.88;;;22.83;;
55148;SDS011;49539;48.160;11.530;2024-01-11T07:55:49;47.03;;;23.05;;
55148;SDS011;49539;48.160;11.530;2024-01-11T07:58:26;50.88;;;23.85;;
55148;SDS011;49539;48.160;11.530;2024-01-11T08:01:01;51.40;;;22.88;;
55148;SDS011;49539;48.160;11.530;2024-01-11T08:03:36;46.65;;;21.48;;
55148;SDS011;49539;48.160;11.530;2024-01-11T08:06:11;49.20;;;22.15;;
55148;SDS011;49539;48.160;11.530;2024-01-11T08:08:47;53.88;;;23.73;;
55148;SDS011;49539;48.160;11.530;2024-01-11T08:11:26;48.83;;;21.75;;
55148;SDS011;49539;48.160;11.530;2024-01-11T08:14:02;42.67;;;20.63;;
55148;SDS011;49539;48.160;11.530;2024-01-11T08:16:37;44.95;;;21.50;;
55148;SDS011;49539;48.160;11.530;2024-01-11T08:19:12;44.65;;;19.63;;
55148;SDS011;49539;48.160;11.530;2024-01-11T08:21:49;45.75;;;22.27;;
55148;SDS011;49539;48.160;11.530;2024-01-11T08:24:24;46.75;;;21.88;;
55148;SDS011;49539;48.160;11.530;2024-01-11T08:27:00;57.88;;;30.67;;
55148;SDS011;49539;48.160;11.530;2024-01-11T08:29:35;50.40;;;24.65;;
55148;SDS011;49539;48.160;11.530;2024-01-11T08:32:11;58.90;;;27.35;;
55148;SDS011;49539;48.160;11.530;2024-01-11T08:34:46;55.75;;;25.73;;
55148;SDS011;49539;48.160;11.530;2024-01-11T08:37:21;50.55;;;23.38;;
55148;SDS011;49539;48.160;11.530;2024-01-11T08:39:58;61.60;;;28.35;;
55148;SDS011;49539;48.160;11.530;2024-01-11T08:42:33;56.70;;;26.15;;
55148;SDS011;49539;48.160;11.530;2024-01-11T08:45:08;48.72;;;22.70;;
55148;SDS011;49539;48.160;11.530;2024-01-11T08:47:44;52.42;;;23.30;;
55148;SDS011;49539;48.160;11.530;2024-01-11T08:50:19;48.65;;;23.63;;
55148;SDS011;49539;48.160;11.530;2024-01-11T08:52:56;42.20;;;23.15;;
55148;SDS011;49539;48.160;11.530;2024-01-11T08:55:32;60.58;;;28.52;;
55148;SDS011;49539;48.160;11.530;2024-01-11T08:58:08;63.65;;;28.95;;
55148;SDS011;49539;48.160;11.530;2024-01-11T09:00:43;74.95;;;32.55;;
55148;SDS011;49539;48.160;11.530;2024-01-11T09:03:19;69.35;;;32.92;;
55148;SDS011;49539;48.160;11.530;2024-01-11T09:05:54;75.43;;;33.20;;
55148;SDS011;49539;48.160;11.530;2024-01-11T09:08:32;80.65;;;34.55;;
55148;SDS011;49539;48.160;11.530;2024-01-11T09:11:07;91.25;;;34.60;;
55148;SDS011;49539;48.160;11.530;2024-01-11T09:13:42;82.75;;;33.55;;
55148;SDS011;49539;48.160;11.530;2024-01-11T09:16:18;81.18;;;32.08;;
55148;SDS011;49539;48.160;11.530;2024-01-11T09:18:53;70.78;;;33.63;;
55148;SDS011;49539;48.160;11.530;2024-01-11T09:21:28;93.97;;;33.40;;
55148;SDS011;49539;48.160;11.530;2024-01-11T09:24:03;71.32;;;30.00;;
55148;SDS011;49539;48.160;11.530;2024-01-11T09:26:39;77.55;;;33.20;;
55148;SDS011;49539;48.160;11.530;2024-01-11T09:29:14;70.10;;;30.90;;
55148;SDS011;49539;48.160;11.530;2024-01-11T09:31:50;74.78;;;31.85;;
55148;SDS011;49539;48.160;11.530;2024-01-11T09:34:25;83.68;;;33.42;;
55148;SDS011;49539;48.160;11.530;2024-01-11T09:37:00;75.53;;;31.33;;
55148;SDS011;49539;48.160;11.530;2024-01-11T09:39:35;69.00;;;30.17;;
55148;SDS011;49539;48.160;11.530;2024-01-11T09:42:10;79.25;;;32.33;;
55148;SDS011;49539;48.160;11.530;2024-01-11T09:44:46;67.53;;;32.00;;
55148;SDS011;49539;48.160;11.530;2024-01-11T09:47:21;73.95;;;32.40;;
55148;SDS011;49539;48.160;11.530;2024-01-11T09:49:57;74.80;;;32.35;;
55148;SDS011;49539;48.160;11.530;2024-01-11T09:52:34;73.45;;;31.25;;
55148;SDS011;49539;48.160;11.530;2024-01-11T09:55:09;72.03;;;29.70;;
55148;SDS011;49539;48.160;11.530;2024-01-11T09:57:45;70.90;;;30.05;;
55148;SDS011;49539;48.160;11.530;2024-01-11T10:00:24;72.53;;;32.13;;
55148;SDS011;49539;48.160;11.530;2024-01-11T10:02:59;66.93;;;29.75;;
55148;SDS011;49539;48.160;11.530;2024-01-11T10:05:35;70.85;;;30.85;;
55148;SDS011;49539;48.160;11.530;2024-01-11T10:08:11;70.90;;;31.23;;
55148;SDS011;49539;48.160;11.530;2024-01-11T10:10:46;72.75;;;31.23;;
55148;SDS011;49539;48.160;11.530;2024-01-11T10:13:27;78.70;;;33.17;;
55148;SDS011;49539;48.160;11.530;2024-01-11T10:18:43;61.55;;;30.90;;
55148;SDS011;49539;48.160;11.530;2024-01-11T10:21:19;75.47;;;32.13;;
55148;SDS011;49539;48.160;11.530;2024-01-11T10:23:54;75.03;;;32.05;;
55148;SDS011;49539;48.160;11.530;2024-01-11T10:26:30;82.25;;;34.10;;
55148;SDS011;49539;48.160;11.530;2024-01-11T10:29:05;80.13;;;32.58;;
55148;SDS011;49539;48.160;11.530;2024-01-11T10:31:45;71.45;;;31.08;;
55148;SDS011;49539;48.160;11.530;2024-01-11T10:34:21;73.15;;;31.55;;
55148;SDS011;49539;48.160;11.530;2024-01-11T10:36:57;64.72;;;30.60;;
55148;SDS011;49539;48.160;11.530;2024-01-11T10:39:34;71.00;;;32.08;;
55148;SDS011;49539;48.160;11.530;2024-01-11T10:42:10;81.55;;;33.28;;
55148;SDS011;49539;48.160;11.530;2024-01-11T10:44:46;81.25;;;32.45;;
55148;SDS011;49539;48.160;11.530;2024-01-11T10:47:24;74.65;;;30.38;;
55148;SDS011;49539;48.160;11.530;2024-01-11T10:50:00;76.70;;;33.47;;
55148;SDS011;49539;48.160;11.530;2024-01-11T10:52:38;78.07;;;33.35;;
55148;SDS011;49539;48.160;11.530;2024-01-11T10:55:15;74.18;;;34.00;;
55148;SDS011;49539;48.160;11.530;2024-01-11T10:57:51;75.90;;;31.02;;
55148;SDS011;49539;48.160;11.530;2024-01-11T11:00:28;76.75;;;31.92;;
55148;SDS011;49539;48.160;11.530;2024-01-11T11:03:05;72.65;;;32.63;;
55148;SDS011;49539;48.160;11.530;2024-01-11T11:05:41;69.43;;;31.58;;
55148;SDS011;49539;48.160;11.530;2024-01-11T11:08:17;65.53;;;31.88;;
55148;SDS011;49539;48.160;11.530;2024-01-11T11:10:57;73.75;;;29.15;;
55148;SDS011;49539;48.160;11.530;2024-01-11T11:13:32;67.00;;;31.08;;
55148;SDS011;49539;48.160;11.530;2024-01-11T11:16:09;65.13;;;29.75;;
55148;SDS011;49539;48.160;11.530;2024-01-11T11:18:45;65.60;;;28.77;;
55148;SDS011;49539;48.160;11.530;2024-01-11T11:21:20;65.22;;;29.73;;
55148;SDS011;49539;48.160;11.530;2024-01-11T11:23:56;66.55;;;28.42;;
55148;SDS011;49539;48.160;11.530;2024-01-11T11:26:31;68.32;;;31.17;;
55148;SDS011;49539;48.160;11.530;2024-01-11T11:29:08;70.30;;;27.88;;
55148;SDS011;49539;48.160;11.530;2024-01-11T11:31:44;71.65;;;29.20;;
55148;SDS011;49539;48.160;11.530;2024-01-11T11:34:43;69.30;;;29.90;;
55148;SDS011;49539;48.160;11.530;2024-01-11T11:37:24;68.50;;;28.98;;
55148;SDS011;49539;48.160;11.530;2024-01-11T11:40:00;63.95;;;29.85;;
55148;SDS011;49539;48.160;11.530;2024-01-11T11:42:35;71.97;;;30.95;;
55148;SDS011;49539;48.160;11.530;2024-01-11T11:45:10;62.35;;;29.83;;
55148;SDS011;49539;48.160;11.530;2024-01-11T11:47:46;71.00;;;30.73;;
55148;SDS011;49539;48.160;11.530;2024-01-11T11:50:22;66.20;;;27.60;;
55148;SDS011;49539;48.160;11.530;2024-01-11T11:52:57;72.60;;;29.15;;
55148;SDS011;49539;48.160;11.530;2024-01-11T11:55:33;65.03;;;29.23;;
55148;SDS011;49539;48.160;11.530;2024-01-11T11:58:12;67.38;;;28.52;;
55148;SDS011;49539;48.160;11.530;2024-01-11T12:00:47;69.22;;;30.63;;
55148;SDS011;49539;48.160;11.530;2024-01-11T12:03:23;74.63;;;31.13;;
55148;SDS011;49539;48.160;11.530;2024-01-11T12:06:04;71.10;;;29.77;;
55148;SDS011;49539;48.160;11.530;2024-01-11T12:08:41;64.68;;;30.38;;
55148;SDS011;49539;48.160;11.530;2024-01-11T12:11:19;64.40;;;31.08;;
55148;SDS011;49539;48.160;11.530;2024-01-11T12:13:55;86.00;;;32.47;;
55148;SDS011;49539;48.160;11.530;2024-01-11T12:16:32;75.45;;;30.88;;
55148;SDS011;49539;48.160;11.530;2024-01-11T12:19:07;70.95;;;30.17;;
55148;SDS011;49539;48.160;11.530;2024-01-11T12:21:42;65.18;;;30.27;;
55148;SDS011;49539;48.160;11.530;2024-01-11T12:24:19;69.05;;;32.30;;
55148;SDS011;49539;48.160;11.530;2024-01-11T12:26:54;61.55;;;29.20;;
55148;SDS011;49539;48.160;11.530;2024-01-11T12:29:29;65.35;;;31.05;;
55148;SDS011;49539;48.160;11.530;2024-01-11T12:32:05;75.90;;;31.02;;
55148;SDS011;49539;48.160;11.530;2024-01-11T12:34:40;61.88;;;29.42;;
55148;SDS011;49539;48.160;11.530;2024-01-11T12:37:16;66.03;;;29.30;;
55148;SDS011;49539;48.160;11.530;2024-01-11T12:39:56;61.05;;;28.40;;
55148;SDS011;49539;48.160;11.530;2024-01-11T12:42:34;70.53;;;30.27;;
55148;SDS011;49539;48.160;11.530;2024-01-11T12:45:09;77.82;;;30.95;;
55148;SDS011;49539;48.160;11.530;2024-01-11T12:47:45;58.83;;;29.63;;
55148;SDS011;49539;48.160;11.530;2024-01-11T12:50:20;67.28;;;28.60;;
55148;SDS011;49539;48.160;11.530;2024-01-11T12:53:09;58.70;;;29.85;;
55148;SDS011;49539;48.160;11.530;2024-01-11T12:55:48;67.07;;;31.45;;
55148;SDS011;49539;48.160;11.530;2024-01-11T12:58:23;66.30;;;29.75;;
55148;SDS011;49539;48.160;11.530;2024-01-11T13:01:00;71.60;;;29.10;;
55148;SDS011;49539;48.160;11.530;2024-01-11T13:03:37;73.78;;;32.45;;
55148;SDS011;49539;48.160;11.530;2024-01-11T13:06:12;68.43;;;31.20;;
55148;SDS011;49539;48.160;11.530;2024-01-11T13:08:48;68.50;;;29.33;;
55148;SDS011;49539;48.160;11.530;2024-01-11T13:11:23;62.50;;;28.23;;
55148;SDS011;49539;48.160;11.530;2024-01-11T13:13:59;62.22;;;29.55;;
55148;SDS011;49539;48.160;11.530;2024-01-11T13:16:39;64.22;;;29.52;;
55148;SDS011;49539;48.160;11.530;2024-01-11T13:19:15;68.95;;;31.67;;
55148;SDS011;49539;48.160;11.530;2024-01-11T13:21:50;68.18;;;30.85;;
55148;SDS011;49539;48.160;11.530;2024-01-11T13:24:25;69.43;;;30.90;;
55148;SDS011;49539;48.160;11.530;2024-01-11T13:27:00;69.78;;;32.67;;
55148;SDS011;49539;48.160;11.530;2024-01-11T13:29:36;63.40;;;31.13;;
55148;SDS011;49539;48.160;11.530;2024-01-11T13:32:11;66.03;;;30.40;;
55148;SDS011;49539;48.160;11.530;2024-01-11T13:34:47;69.60;;;29.48;;
55148;SDS011;49539;48.160;11.530;2024-01-11T13:37:22;70.60;;;30.95;;
55148;SDS011;49539;48.160;11.530;2024-01-11T13:39:57;65.18;;;29.95;;
55148;SDS011;49539;48.160;11.530;2024-01-11T13:42:32;62.35;;;29.38;;
55148;SDS011;49539;48.160;11.530;2024-01-11T13:45:08;59.28;;;28.40;;
55148;SDS011;49539;48.160;11.530;2024-01-11T13:47:44;73.57;;;31.67;;
55148;SDS011;49539;48.160;11.530;2024-01-11T13:50:19;63.53;;;31.90;;
55148;SDS011;49539;48.160;11.530;2024-01-11T13:52:55;67.03;;;31.77;;
55148;SDS011;49539;48.160;11.530;2024-01-11T13:55:30;67.20;;;32.70;;
55148;SDS011;49539;48.160;11.530;2024-01-11T13:58:12;82.88;;;33.70;;
55148;SDS011;49539;48.160;11.530;2024-01-11T14:00:48;74.15;;;32.58;;
55148;SDS011;49539;48.160;11.530;2024-01-11T14:03:24;78.63;;;37.30;;
55148;SDS011;49539;48.160;11.530;2024-01-11T14:05:59;78.68;;;35.22;;
55148;SDS011;49539;48.160;11.530;2024-01-11T14:08:35;75.45;;;33.70;;
55148;SDS011;49539;48.160;11.530;2024-01-11T14:11:10;67.03;;;30.75;;
55148;SDS011;49539;48.160;11.530;2024-01-11T14:13:45;76.25;;;34.83;;
55148;SDS011;49539;48.160;11.530;2024-01-11T14:16:21;70.55;;;34.15;;
55148;SDS011;49539;48.160;11.530;2024-01-11T14:18:56;77.10;;;33.72;;
55148;SDS011;49539;48.160;11.530;2024-01-11T14:21:31;76.70;;;34.05;;
55148;SDS011;49539;48.160;11.530;2024-01-11T14:24:07;68.35;;;33.95;;
55148;SDS011;49539;48.160;11.530;2024-01-11T14:26:42;69.32;;;32.20;;
55148;SDS011;49539;48.160;11.530;2024-01-11T14:29:18;75.78;;;33.42;;
55148;SDS011;49539;48.160;11.530;2024-01-11T14:31:53;87.55;;;36.28;;
55148;SDS011;49539;48.160;11.530;2024-01-11T14:34:29;73.80;;;34.88;;
55148;SDS011;49539;48.160;11.530;2024-01-11T14:37:04;73.00;;;33.88;;
55148;SDS011;49539;48.160;11.530;2024-01-11T14:39:39;77.85;;;35.92;;
55148;SDS011;49539;48.160;11.530;2024-01-11T14:42:14;85.25;;;37.55;;
55148;SDS011;49539;48.160;11.530;2024-01-11T14:44:50;85.80;;;36.25;;
55148;SDS011;49539;48.160;11.530;2024-01-11T14:47:25;81.28;;;33.90;;
55148;SDS011;49539;48.160;11.530;2024-01-11T14:50:00;77.50;;;34.30;;
55148;SDS011;49539;48.160;11.530;2024-01-11T14:52:36;72.68;;;32.58;;
55148;SDS011;49539;48.160;11.530;2024-01-11T14:55:11;82.82;;;36.13;;
55148;SDS011;49539;48.160;11.530;2024-01-11T14:57:46;82.28;;;35.65;;
55148;SDS011;49539;48.160;11.530;2024-01-11T15:00:22;79.55;;;34.92;;